sensor_id;sensor_type;location;lat;lon;timestamp;temperature;humidity
3268;DHT22;1646;52.450;13.326;2022-11-11T00:02:30;11.00;99.90
3268;DHT22;1646;52.450;13.326;2022-11-11T00:07:46;10.90;99.90
3268;DHT22;1646;52.450;13.326;2022-11-11T00:13:03;10.90;99.90
3268;DHT22;1646;52.450;13.326;2022-11-11T00:18:22;10.90;99.90
3268;DHT22;1646;52.450;13.326;2022-11-11T00:23:56;10.80;99.90
3268;DHT22;1646;52.450;13.326;2022-11-11T00:29:30;10.80;99.90
3268;DHT22;1646;52.450;13.326;2022-11-11T00:34:49;10.90;99.90
3268;DHT22;1646;52.450;13.326;2022-11-11T00:40:23;10.80;99.90
3268;DHT22;1646;52.450;13.326;2022-11-11T00:45:40;10.70;99.90
3268;DHT22;1646;52.450;13.326;2022-11-11T00:50:58;10.60;99.90
3268;DHT22;1646;52.450;13.326;2022-11-11T00:56:15;10.50;99.90
3268;DHT22;1646;52.450;13.326;2022-11-11T01:01:31;10.50;99.90
3268;DHT22;1646;52.450;13.326;2022-11-11T01:06:49;10.50;99.90
3268;DHT22;1646;52.450;13.326;2022-11-11T01:12:06;10.40;99.90
3268;DHT22;1646;52.450;13.326;2022-11-11T01:17:23;10.40;99.90
3268;DHT22;1646;52.450;13.326;2022-11-11T01:22:41;10.40;99.90
3268;DHT22;1646;52.450;13.326;2022-11-11T01:27:58;10.30;99.90
3268;DHT22;1646;52.450;13.326;2022-11-11T01:33:15;10.20;99.90
3268;DHT22;1646;52.450;13.326;2022-11-11T01:38:32;10.20;99.90
3268;DHT22;1646;52.450;13.326;2022-11-11T01:43:49;10.20;99.90
3268;DHT22;1646;52.450;13.326;2022-11-11T01:49:19;10.20;99.90
3268;DHT22;1646;52.450;13.326;2022-11-11T01:54:41;10.20;99.90
3268;DHT22;1646;52.450;13.326;2022-11-11T02:00:02;10.20;99.90
3268;DHT22;1646;52.450;13.326;2022-11-11T02:05:21;10.20;99.90
3268;DHT22;1646;52.450;13.326;2022-11-11T02:10:58;10.10;99.90
3268;DHT22;1646;52.450;13.326;2022-11-11T02:16:17;10.10;99.90
3268;DHT22;1646;52.450;13.326;2022-11-11T02:21:36;10.20;99.90
3268;DHT22;1646;52.450;13.326;2022-11-11T02:27:01;10.10;99.90
3268;DHT22;1646;52.450;13.326;2022-11-11T02:32:18;10.10;99.90
3268;DHT22;1646;52.450;13.326;2022-11-11T02:37:35;10.20;99.90
3268;DHT22;1646;52.450;13.326;2022-11-11T02:42:53;10.10;99.90
3268;DHT22;1646;52.450;13.326;2022-11-11T02:48:10;10.20;99.90
3268;DHT22;1646;52.450;13.326;2022-11-11T02:53:27;10.10;99.90
3268;DHT22;1646;52.450;13.326;2022-11-11T02:58:46;10.20;99.90
3268;DHT22;1646;52.450;13.326;2022-11-11T03:04:03;10.10;99.90
3268;DHT22;1646;52.450;13.326;2022-11-11T03:09:20;10.10;99.90
3268;DHT22;1646;52.450;13.326;2022-11-11T03:14:38;10.20;99.90
3268;DHT22;1646;52.450;13.326;2022-11-11T03:19:55;10.10;99.90
3268;DHT22;1646;52.450;13.326;2022-11-11T03:25:31;10.10;99.90
3268;DHT22;1646;52.450;13.326;2022-11-11T03:30:55;10.00;99.90
3268;DHT22;1646;52.450;13.326;2022-11-11T03:36:18;10.00;99.90
3268;DHT22;1646;52.450;13.326;2022-11-11T03:41:35;10.00;99.90
3268;DHT22;1646;52.450;13.326;2022-11-11T03:46:53;10.00;99.90
3268;DHT22;1646;52.450;13.326;2022-11-11T03:52:10;10.00;99.90
3268;DHT22;1646;52.450;13.326;2022-11-11T03:57:26;10.00;99.90
3268;DHT22;1646;52.450;13.326;2022-11-11T04:02:47;9.90;99.90
3268;DHT22;1646;52.450;13.326;2022-11-11T04:08:21;10.00;99.90
3268;DHT22;1646;52.450;13.326;2022-11-11T04:13:58;9.90;99.90
3268;DHT22;1646;52.450;13.326;2022-11-11T04:19:33;9.90;99.90
3268;DHT22;1646;52.450;13.326;2022-11-11T04:25:08;10.00;99.90
3268;DHT22;1646;52.450;13.326;2022-11-11T04:30:42;9.90;99.90
3268;DHT22;1646;52.450;13.326;2022-11-11T04:36:00;9.90;99.90
3268;DHT22;1646;52.450;13.326;2022-11-11T04:41:17;9.80;99.90
3268;DHT22;1646;52.450;13.326;2022-11-11T04:46:34;9.80;99.90
3268;DHT22;1646;52.450;13.326;2022-11-11T04:51:51;9.80;99.90
3268;DHT22;1646;52.450;13.326;2022-11-11T04:57:26;9.80;99.90
3268;DHT22;1646;52.450;13.326;2022-11-11T05:02:43;9.80;99.90
3268;DHT22;1646;52.450;13.326;2022-11-11T05:08:19;9.80;99.90
3268;DHT22;1646;52.450;13.326;2022-11-11T05:13:54;9.70;99.90
3268;DHT22;1646;52.450;13.326;2022-11-11T05:19:29;9.70;99.90
3268;DHT22;1646;52.450;13.326;2022-11-11T05:25:06;9.60;99.90
3268;DHT22;1646;52.450;13.326;2022-11-11T05:30:43;9.50;99.90
3268;DHT22;1646;52.450;13.326;2022-11-11T05:36:00;9.50;99.90
3268;DHT22;1646;52.450;13.326;2022-11-11T05:41:18;9.60;99.90
3268;DHT22;1646;52.450;13.326;2022-11-11T05:46:35;9.60;99.90
3268;DHT22;1646;52.450;13.326;2022-11-11T05:51:51;9.70;99.90
3268;DHT22;1646;52.450;13.326;2022-11-11T05:57:11;9.60;99.90
3268;DHT22;1646;52.450;13.326;2022-11-11T06:02:28;9.60;99.90
3268;DHT22;1646;52.450;13.326;2022-11-11T06:07:44;9.60;99.90
3268;DHT22;1646;52.450;13.326;2022-11-11T06:13:02;9.70;99.90
3268;DHT22;1646;52.450;13.326;2022-11-11T06:18:24;9.80;99.90
3268;DHT22;1646;52.450;13.326;2022-11-11T06:23:45;9.80;99.90
3268;DHT22;1646;52.450;13.326;2022-11-11T06:29:03;9.80;99.90
3268;DHT22;1646;52.450;13.326;2022-11-11T06:34:20;9.80;99.90
3268;DHT22;1646;52.450;13.326;2022-11-11T06:39:36;9.70;99.90
3268;DHT22;1646;52.450;13.326;2022-11-11T06:44:54;9.60;99.90
3268;DHT22;1646;52.450;13.326;2022-11-11T06:50:11;9.60;99.90
3268;DHT22;1646;52.450;13.326;2022-11-11T06:55:27;9.70;99.90
3268;DHT22;1646;52.450;13.326;2022-11-11T07:00:46;9.80;99.90
3268;DHT22;1646;52.450;13.326;2022-11-11T07:06:04;9.80;99.90
3268;DHT22;1646;52.450;13.326;2022-11-11T07:11:21;9.80;99.90
3268;DHT22;1646;52.450;13.326;2022-11-11T07:16:39;9.90;99.90
3268;DHT22;1646;52.450;13.326;2022-11-11T07:21:55;9.90;99.90
3268;DHT22;1646;52.450;13.326;2022-11-11T07:27:12;9.80;99.90
3268;DHT22;1646;52.450;13.326;2022-11-11T07:32:30;10.00;99.90
3268;DHT22;1646;52.450;13.326;2022-11-11T07:37:47;9.80;99.90
3268;DHT22;1646;52.450;13.326;2022-11-11T07:43:04;9.90;99.90
3268;DHT22;1646;52.450;13.326;2022-11-11T07:48:22;10.10;99.90
3268;DHT22;1646;52.450;13.326;2022-11-11T07:53:39;10.20;99.90
3268;DHT22;1646;52.450;13.326;2022-11-11T07:58:55;10.20;99.90
3268;DHT22;1646;52.450;13.326;2022-11-11T08:04:14;10.30;99.90
3268;DHT22;1646;52.450;13.326;2022-11-11T08:09:30;10.40;99.90
3268;DHT22;1646;52.450;13.326;2022-11-11T08:14:47;10.40;99.90
3268;DHT22;1646;52.450;13.326;2022-11-11T08:20:06;10.50;99.90
3268;DHT22;1646;52.450;13.326;2022-11-11T08:25:24;10.60;99.90
3268;DHT22;1646;52.450;13.326;2022-11-11T08:30:41;10.70;99.90
3268;DHT22;1646;52.450;13.326;2022-11-11T08:35:59;10.70;99.90
3268;DHT22;1646;52.450;13.326;2022-11-11T08:41:16;10.80;99.90
3268;DHT22;1646;52.450;13.326;2022-11-11T08:46:33;10.70;99.90
3268;DHT22;1646;52.450;13.326;2022-11-11T08:51:51;10.70;99.90
3268;DHT22;1646;52.450;13.326;2022-11-11T08:57:08;11.00;99.90
3268;DHT22;1646;52.450;13.326;2022-11-11T09:02:24;11.20;99.90
3268;DHT22;1646;52.450;13.326;2022-11-11T09:07:42;11.70;99.90
3268;DHT22;1646;52.450;13.326;2022-11-11T09:12:59;12.10;99.90
3268;DHT22;1646;52.450;13.326;2022-11-11T09:18:16;12.30;99.90
3268;DHT22;1646;52.450;13.326;2022-11-11T09:23:34;12.40;99.90
3268;DHT22;1646;52.450;13.326;2022-11-11T09:28:51;12.60;99.90
3268;DHT22;1646;52.450;13.326;2022-11-11T09:34:07;13.00;99.90
3268;DHT22;1646;52.450;13.326;2022-11-11T09:39:25;13.10;99.90
3268;DHT22;1646;52.450;13.326;2022-11-11T09:45:01;13.20;99.90
3268;DHT22;1646;52.450;13.326;2022-11-11T09:50:24;13.40;99.90
3268;DHT22;1646;52.450;13.326;2022-11-11T09:55:44;13.20;99.90
3268;DHT22;1646;52.450;13.326;2022-11-11T10:01:07;13.10;99.90
3268;DHT22;1646;52.450;13.326;2022-11-11T10:06:27;12.80;99.90
3268;DHT22;1646;52.450;13.326;2022-11-11T10:11:51;12.80;99.90
3268;DHT22;1646;52.450;13.326;2022-11-11T10:17:17;12.90;99.90
3268;DHT22;1646;52.450;13.326;2022-11-11T10:22:40;13.00;99.90
3268;DHT22;1646;52.450;13.326;2022-11-11T10:28:00;13.10;99.90
3268;DHT22;1646;52.450;13.326;2022-11-11T10:33:22;13.20;99.90
3268;DHT22;1646;52.450;13.326;2022-11-11T10:38:46;13.50;99.90
3268;DHT22;1646;52.450;13.326;2022-11-11T10:44:19;13.80;99.90
3268;DHT22;1646;52.450;13.326;2022-11-11T10:49:40;14.30;99.90
3268;DHT22;1646;52.450;13.326;2022-11-11T10:55:01;14.50;99.90
3268;DHT22;1646;52.450;13.326;2022-11-11T11:00:21;14.50;99.90
3268;DHT22;1646;52.450;13.326;2022-11-11T11:05:43;14.70;99.90
3268;DHT22;1646;52.450;13.326;2022-11-11T11:11:06;14.90;99.90
3268;DHT22;1646;52.450;13.326;2022-11-11T11:16:26;14.80;99.90
3268;DHT22;1646;52.450;13.326;2022-11-11T11:21:52;14.70;99.90
3268;DHT22;1646;52.450;13.326;2022-11-11T11:27:09;14.70;99.90
3268;DHT22;1646;52.450;13.326;2022-11-11T11:32:29;14.80;99.90
3268;DHT22;1646;52.450;13.326;2022-11-11T11:37:50;14.60;99.90
3268;DHT22;1646;52.450;13.326;2022-11-11T11:43:23;14.60;99.90
3268;DHT22;1646;52.450;13.326;2022-11-11T11:48:53;14.40;99.90
3268;DHT22;1646;52.450;13.326;2022-11-11T11:54:33;14.30;99.90
3268;DHT22;1646;52.450;13.326;2022-11-11T11:59:58;14.40;99.90
3268;DHT22;1646;52.450;13.326;2022-11-11T12:05:24;14.40;99.90
3268;DHT22;1646;52.450;13.326;2022-11-11T12:10:47;14.50;99.90
3268;DHT22;1646;52.450;13.326;2022-11-11T12:16:16;14.80;99.90
3268;DHT22;1646;52.450;13.326;2022-11-11T12:21:41;14.70;99.90
3268;DHT22;1646;52.450;13.326;2022-11-11T12:27:13;14.60;99.90
3268;DHT22;1646;52.450;13.326;2022-11-11T12:38:48;14.60;99.90
3268;DHT22;1646;52.450;13.326;2022-11-11T12:44:07;14.70;99.90
3268;DHT22;1646;52.450;13.326;2022-11-11T12:49:37;14.80;99.90
3268;DHT22;1646;52.450;13.326;2022-11-11T12:55:06;14.90;99.90
3268;DHT22;1646;52.450;13.326;2022-11-11T13:00:27;15.00;99.90
3268;DHT22;1646;52.450;13.326;2022-11-11T13:05:51;15.10;99.90
3268;DHT22;1646;52.450;13.326;2022-11-11T13:11:15;15.10;99.90
3268;DHT22;1646;52.450;13.326;2022-11-11T13:16:40;15.00;99.90
3268;DHT22;1646;52.450;13.326;2022-11-11T13:22:00;14.90;99.90
3268;DHT22;1646;52.450;13.326;2022-11-11T13:27:28;14.80;99.90
3268;DHT22;1646;52.450;13.326;2022-11-11T13:32:49;14.70;99.90
3268;DHT22;1646;52.450;13.326;2022-11-11T13:38:10;14.50;99.90
3268;DHT22;1646;52.450;13.326;2022-11-11T13:43:32;14.50;99.90
3268;DHT22;1646;52.450;13.326;2022-11-11T13:48:50;14.40;99.90
3268;DHT22;1646;52.450;13.326;2022-11-11T13:54:21;14.40;99.90
3268;DHT22;1646;52.450;13.326;2022-11-11T13:59:42;14.50;99.90
3268;DHT22;1646;52.450;13.326;2022-11-11T14:05:20;14.50;99.90
3268;DHT22;1646;52.450;13.326;2022-11-11T14:10:53;14.40;99.90
3268;DHT22;1646;52.450;13.326;2022-11-11T14:22:31;14.30;99.90
3268;DHT22;1646;52.450;13.326;2022-11-11T14:27:48;14.20;99.90
3268;DHT22;1646;52.450;13.326;2022-11-11T14:33:15;14.20;99.90
3268;DHT22;1646;52.450;13.326;2022-11-11T14:38:45;14.20;99.90
3268;DHT22;1646;52.450;13.326;2022-11-11T14:44:40;14.10;99.90
3268;DHT22;1646;52.450;13.326;2022-11-11T14:49:58;14.10;99.90
3268;DHT22;1646;52.450;13.326;2022-11-11T14:55:18;14.00;99.90
3268;DHT22;1646;52.450;13.326;2022-11-11T15:00:43;14.00;99.90
3268;DHT22;1646;52.450;13.326;2022-11-11T15:06:05;13.90;99.90
3268;DHT22;1646;52.450;13.326;2022-11-11T15:11:27;13.90;99.90
3268;DHT22;1646;52.450;13.326;2022-11-11T15:17:01;13.90;99.90
3268;DHT22;1646;52.450;13.326;2022-11-11T15:22:33;13.80;99.90
3268;DHT22;1646;52.450;13.326;2022-11-11T15:27:55;13.70;99.90
3268;DHT22;1646;52.450;13.326;2022-11-11T15:33:19;13.60;99.90
3268;DHT22;1646;52.450;13.326;2022-11-11T15:38:41;13.60;99.90
3268;DHT22;1646;52.450;13.326;2022-11-11T15:43:58;13.50;99.90
3268;DHT22;1646;52.450;13.326;2022-11-11T15:49:37;13.40;99.90
3268;DHT22;1646;52.450;13.326;2022-11-11T15:54:56;13.30;99.90
3268;DHT22;1646;52.450;13.326;2022-11-11T16:00:27;13.30;99.90
3268;DHT22;1646;52.450;13.326;2022-11-11T16:05:43;13.20;99.90
3268;DHT22;1646;52.450;13.326;2022-11-11T16:11:01;13.20;99.90
3268;DHT22;1646;52.450;13.326;2022-11-11T16:16:21;13.10;99.90
3268;DHT22;1646;52.450;13.326;2022-11-11T16:21:41;13.10;99.90
3268;DHT22;1646;52.450;13.326;2022-11-11T16:27:04;13.00;99.90
3268;DHT22;1646;52.450;13.326;2022-11-11T16:32:32;13.00;99.90
3268;DHT22;1646;52.450;13.326;2022-11-11T16:37:50;12.90;99.90
3268;DHT22;1646;52.450;13.326;2022-11-11T16:43:20;12.80;99.90
3268;DHT22;1646;52.450;13.326;2022-11-11T16:48:49;12.80;99.90
3268;DHT22;1646;52.450;13.326;2022-11-11T16:54:09;12.70;99.90
3268;DHT22;1646;52.450;13.326;2022-11-11T16:59:35;12.60;99.90
3268;DHT22;1646;52.450;13.326;2022-11-11T17:04:55;12.50;99.90
3268;DHT22;1646;52.450;13.326;2022-11-11T17:10:17;12.50;99.90
3268;DHT22;1646;52.450;13.326;2022-11-11T17:15:35;12.40;99.90
3268;DHT22;1646;52.450;13.326;2022-11-11T17:20:52;12.40;99.90
3268;DHT22;1646;52.450;13.326;2022-11-11T17:26:13;12.30;99.90
3268;DHT22;1646;52.450;13.326;2022-11-11T17:31:31;12.20;99.90
3268;DHT22;1646;52.450;13.326;2022-11-11T17:36:47;12.10;99.90
3268;DHT22;1646;52.450;13.326;2022-11-11T17:42:04;12.00;99.90
3268;DHT22;1646;52.450;13.326;2022-11-11T17:47:22;11.90;99.90
3268;DHT22;1646;52.450;13.326;2022-11-11T17:52:39;11.80;99.90
3268;DHT22;1646;52.450;13.326;2022-11-11T17:57:57;11.70;99.90
3268;DHT22;1646;52.450;13.326;2022-11-11T18:03:15;11.60;99.90
3268;DHT22;1646;52.450;13.326;2022-11-11T18:08:32;11.60;99.90
3268;DHT22;1646;52.450;13.326;2022-11-11T18:13:48;11.50;99.90
3268;DHT22;1646;52.450;13.326;2022-11-11T18:19:06;11.40;99.90
3268;DHT22;1646;52.450;13.326;2022-11-11T18:24:23;11.40;99.90
3268;DHT22;1646;52.450;13.326;2022-11-11T18:29:40;11.40;99.90
3268;DHT22;1646;52.450;13.326;2022-11-11T18:34:59;11.30;99.90
3268;DHT22;1646;52.450;13.326;2022-11-11T18:40:15;11.40;99.90
3268;DHT22;1646;52.450;13.326;2022-11-11T18:45:34;11.40;99.90
3268;DHT22;1646;52.450;13.326;2022-11-11T18:50:55;11.30;99.90
3268;DHT22;1646;52.450;13.326;2022-11-11T18:56:14;11.30;99.90
3268;DHT22;1646;52.450;13.326;2022-11-11T19:01:32;11.30;99.90
3268;DHT22;1646;52.450;13.326;2022-11-11T19:06:51;11.20;99.90
3268;DHT22;1646;52.450;13.326;2022-11-11T19:12:08;11.20;99.90
3268;DHT22;1646;52.450;13.326;2022-11-11T19:17:24;11.20;99.90
3268;DHT22;1646;52.450;13.326;2022-11-11T19:22:42;11.20;99.90
3268;DHT22;1646;52.450;13.326;2022-11-11T19:27:59;11.20;99.90
3268;DHT22;1646;52.450;13.326;2022-11-11T19:33:15;11.10;99.90
3268;DHT22;1646;52.450;13.326;2022-11-11T19:38:33;11.10;99.90
3268;DHT22;1646;52.450;13.326;2022-11-11T19:43:50;11.00;99.90
3268;DHT22;1646;52.450;13.326;2022-11-11T19:49:08;11.00;99.90
3268;DHT22;1646;52.450;13.326;2022-11-11T19:54:26;11.00;99.90
3268;DHT22;1646;52.450;13.326;2022-11-11T19:59:42;10.90;99.90
3268;DHT22;1646;52.450;13.326;2022-11-11T20:04:58;10.80;99.90
3268;DHT22;1646;52.450;13.326;2022-11-11T20:10:16;10.80;99.90
3268;DHT22;1646;52.450;13.326;2022-11-11T20:15:33;10.70;99.90
3268;DHT22;1646;52.450;13.326;2022-11-11T20:20:50;10.70;99.90
3268;DHT22;1646;52.450;13.326;2022-11-11T20:26:09;10.80;99.90
3268;DHT22;1646;52.450;13.326;2022-11-11T20:31:26;10.60;99.90
3268;DHT22;1646;52.450;13.326;2022-11-11T20:36:43;10.50;99.90
3268;DHT22;1646;52.450;13.326;2022-11-11T20:42:01;10.50;99.90
3268;DHT22;1646;52.450;13.326;2022-11-11T20:47:17;10.40;99.90
3268;DHT22;1646;52.450;13.326;2022-11-11T20:52:34;10.40;99.90
3268;DHT22;1646;52.450;13.326;2022-11-11T20:57:52;10.30;99.90
3268;DHT22;1646;52.450;13.326;2022-11-11T21:03:11;10.30;99.90
3268;DHT22;1646;52.450;13.326;2022-11-11T21:08:28;10.30;99.90
3268;DHT22;1646;52.450;13.326;2022-11-11T21:13:52;10.20;99.90
3268;DHT22;1646;52.450;13.326;2022-11-11T21:19:09;10.20;99.90
3268;DHT22;1646;52.450;13.326;2022-11-11T21:24:25;10.20;99.90
3268;DHT22;1646;52.450;13.326;2022-11-11T21:29:43;10.10;99.90
3268;DHT22;1646;52.450;13.326;2022-11-11T21:35:00;10.10;99.90
3268;DHT22;1646;52.450;13.326;2022-11-11T21:40:17;10.10;99.90
3268;DHT22;1646;52.450;13.326;2022-11-11T21:45:35;10.10;99.90
3268;DHT22;1646;52.450;13.326;2022-11-11T21:50:52;10.10;99.90
3268;DHT22;1646;52.450;13.326;2022-11-11T21:56:10;10.10;99.90
3268;DHT22;1646;52.450;13.326;2022-11-11T22:01:30;10.10;99.90
3268;DHT22;1646;52.450;13.326;2022-11-11T22:06:47;10.00;99.90
3268;DHT22;1646;52.450;13.326;2022-11-11T22:12:04;10.00;99.90
3268;DHT22;1646;52.450;13.326;2022-11-11T22:17:22;9.90;99.90
3268;DHT22;1646;52.450;13.326;2022-11-11T22:22:39;9.90;99.90
3268;DHT22;1646;52.450;13.326;2022-11-11T22:27:56;9.90;99.90
3268;DHT22;1646;52.450;13.326;2022-11-11T22:33:13;9.90;99.90
3268;DHT22;1646;52.450;13.326;2022-11-11T22:38:30;9.90;99.90
3268;DHT22;1646;52.450;13.326;2022-11-11T22:43:48;9.80;99.90
3268;DHT22;1646;52.450;13.326;2022-11-11T22:49:16;9.80;99.90
3268;DHT22;1646;52.450;13.326;2022-11-11T22:54:33;9.70;99.90
3268;DHT22;1646;52.450;13.326;2022-11-11T22:59:49;9.70;99.90
3268;DHT22;1646;52.450;13.326;2022-11-11T23:05:08;9.60;99.90
3268;DHT22;1646;52.450;13.326;2022-11-11T23:10:24;9.50;99.90
3268;DHT22;1646;52.450;13.326;2022-11-11T23:15:50;9.50;99.90
3268;DHT22;1646;52.450;13.326;2022-11-11T23:21:10;9.40;99.90
3268;DHT22;1646;52.450;13.326;2022-11-11T23:26:28;9.30;99.90
3268;DHT22;1646;52.450;13.326;2022-11-11T23:31:45;9.30;99.90
3268;DHT22;1646;52.450;13.326;2022-11-11T23:37:03;9.20;99.90
3268;DHT22;1646;52.450;13.326;2022-11-11T23:42:22;9.20;99.90
3268;DHT22;1646;52.450;13.326;2022-11-11T23:47:39;9.10;99.90
3268;DHT22;1646;52.450;13.326;2022-11-11T23:52:59;9.10;99.90
3268;DHT22;1646;52.450;13.326;2022-11-11T23:58:16;9.10;99.90
